createdAt,value
2022-12-11T00:02:23.680Z,1.95
2022-12-11T00:04:50.623Z,1.33
2022-12-11T00:07:17.781Z,1.70
2022-12-11T00:09:44.797Z,1.70
2022-12-11T00:12:11.997Z,1.58
2022-12-11T00:14:39.060Z,1.65
2022-12-11T00:17:06.346Z,1.67
2022-12-11T00:19:33.488Z,1.73
2022-12-11T00:22:00.559Z,1.65
2022-12-11T00:24:29.934Z,1.63
2022-12-11T00:26:57.019Z,1.88
2022-12-11T00:29:23.981Z,1.83
2022-12-11T00:31:52.233Z,1.83
2022-12-11T00:34:19.242Z,1.77
2022-12-11T00:36:46.255Z,1.67
2022-12-11T00:39:13.306Z,1.73
2022-12-11T00:41:40.347Z,1.50
2022-12-11T00:44:07.282Z,1.30
2022-12-11T00:46:34.353Z,1.60
2022-12-11T00:49:01.462Z,1.85
2022-12-11T00:51:28.492Z,2.05
2022-12-11T00:53:55.930Z,1.55
2022-12-11T00:56:24.631Z,1.90
2022-12-11T00:58:51.820Z,1.35
2022-12-11T01:01:22.148Z,1.30
2022-12-11T01:03:49.919Z,1.50
2022-12-11T01:06:24.246Z,1.17
2022-12-11T01:09:14.538Z,1.48
2022-12-11T01:11:43.074Z,1.42
2022-12-11T01:14:11.929Z,1.50
2022-12-11T01:16:39.628Z,1.48
2022-12-11T01:19:06.921Z,1.67
2022-12-11T01:21:34.014Z,1.90
2022-12-11T01:24:01.160Z,1.73
2022-12-11T01:26:28.296Z,1.38
2022-12-11T01:28:55.477Z,1.52
2022-12-11T01:31:22.577Z,1.30
2022-12-11T01:33:49.741Z,1.50
2022-12-11T01:36:21.919Z,1.58
2022-12-11T01:38:49.944Z,1.60
2022-12-11T01:41:18.827Z,1.90
2022-12-11T01:44:02.198Z,1.40
2022-12-11T01:46:30.608Z,1.38
2022-12-11T01:48:59.157Z,1.50
2022-12-11T01:51:27.246Z,1.42
2022-12-11T01:54:01.015Z,1.20
2022-12-11T01:56:32.563Z,1.80
2022-12-11T01:59:07.199Z,1.65
2022-12-11T02:01:45.378Z,1.60
2022-12-11T02:04:16.107Z,1.63
2022-12-11T02:06:47.190Z,2.22
2022-12-11T02:09:17.409Z,1.58
2022-12-11T02:12:06.941Z,1.65
2022-12-11T02:15:03.458Z,1.48
2022-12-11T02:17:51.340Z,1.13
2022-12-11T02:20:37.116Z,1.73
2022-12-11T02:23:33.006Z,1.35
2022-12-11T02:26:29.636Z,1.55
2022-12-11T02:29:03.289Z,1.95
2022-12-11T02:31:38.735Z,1.48
2022-12-11T02:34:12.328Z,2.00
2022-12-11T02:36:44.141Z,1.40
2022-12-11T02:39:15.252Z,1.27
2022-12-11T02:41:52.326Z,1.55
2022-12-11T02:44:33.602Z,1.38
2022-12-11T02:47:03.091Z,1.23
2022-12-11T02:49:32.445Z,1.00
2022-12-11T02:52:03.613Z,1.15
2022-12-11T02:54:34.096Z,1.27
2022-12-11T02:57:08.845Z,1.10
2022-12-11T02:59:41.715Z,1.30
2022-12-11T03:02:09.563Z,1.08
2022-12-11T03:04:37.191Z,1.73
2022-12-11T03:07:12.478Z,1.65
2022-12-11T03:09:40.937Z,1.13
2022-12-11T03:12:17.333Z,1.30
2022-12-11T03:14:44.854Z,0.98
2022-12-11T03:17:17.538Z,1.15
2022-12-11T03:20:15.169Z,0.98
2022-12-11T03:22:59.772Z,1.27
2022-12-11T03:25:36.180Z,1.10
2022-12-11T03:28:14.194Z,1.30
2022-12-11T03:30:44.176Z,1.13
2022-12-11T03:33:18.146Z,1.20
2022-12-11T03:35:51.728Z,1.25
2022-12-11T03:38:24.077Z,1.10
2022-12-11T03:40:55.856Z,1.30
2022-12-11T03:43:23.530Z,1.40
2022-12-11T03:45:53.884Z,1.25
2022-12-11T03:48:22.984Z,1.33
2022-12-11T03:50:51.167Z,1.40
2022-12-11T03:53:19.326Z,1.45
2022-12-11T03:55:48.262Z,1.63
2022-12-11T03:58:15.501Z,1.60
2022-12-11T04:00:42.833Z,0.90
2022-12-11T04:03:14.076Z,1.35
2022-12-11T04:05:43.948Z,1.25
2022-12-11T04:08:11.597Z,1.50
2022-12-11T04:10:39.821Z,1.55
2022-12-11T04:13:07.322Z,1.20
2022-12-11T04:15:34.866Z,1.83
2022-12-11T04:18:20.511Z,1.40
2022-12-11T04:21:06.281Z,1.50
2022-12-11T04:23:54.284Z,1.75
2022-12-11T04:26:21.596Z,1.45
2022-12-11T04:28:49.712Z,1.35
2022-12-11T04:31:20.231Z,1.60
2022-12-11T04:33:48.013Z,1.30
2022-12-11T04:36:15.195Z,1.50
2022-12-11T04:38:42.196Z,1.73
2022-12-11T04:41:16.013Z,1.60
2022-12-11T04:43:47.091Z,1.50
2022-12-11T04:46:18.208Z,1.63
2022-12-11T04:48:53.794Z,2.22
2022-12-11T04:51:24.211Z,1.98
2022-12-11T04:53:51.365Z,1.77
2022-12-11T04:56:19.039Z,2.72
2022-12-11T04:58:47.432Z,2.10
2022-12-11T05:01:18.788Z,1.70
2022-12-11T05:03:46.607Z,1.52
2022-12-11T05:06:14.700Z,2.85
2022-12-11T05:08:42.808Z,1.80
2022-12-11T05:11:12.386Z,1.45
2022-12-11T05:13:39.860Z,2.10
2022-12-11T05:16:11.353Z,2.28
2022-12-11T05:18:38.608Z,2.13
2022-12-11T05:21:08.530Z,1.90
2022-12-11T05:23:36.286Z,2.15
2022-12-11T05:26:11.073Z,2.17
2022-12-11T05:28:39.781Z,1.52
2022-12-11T05:31:12.196Z,2.10
2022-12-11T05:33:39.535Z,1.60
2022-12-11T05:36:07.746Z,2.08
2022-12-11T05:38:35.082Z,2.88
2022-12-11T05:41:07.914Z,2.75
2022-12-11T05:43:37.034Z,2.75
2022-12-11T05:46:14.553Z,2.83
2022-12-11T05:48:42.864Z,2.20
2022-12-11T05:51:10.766Z,2.10
2022-12-11T05:53:39.358Z,1.63
2022-12-11T05:56:10.946Z,2.42
2022-12-11T05:58:38.399Z,2.17
2022-12-11T06:01:23.208Z,2.28
2022-12-11T06:04:18.119Z,1.90
2022-12-11T06:06:56.934Z,2.20
2022-12-11T06:09:24.249Z,1.63
2022-12-11T06:11:51.303Z,2.00
2022-12-11T06:14:18.402Z,2.03
2022-12-11T06:16:45.396Z,2.25
2022-12-11T06:19:18.483Z,1.63
2022-12-11T06:21:48.913Z,2.03
2022-12-11T06:24:16.829Z,2.28
2022-12-11T06:26:43.871Z,2.10
2022-12-11T06:29:13.060Z,2.80
2022-12-11T06:31:40.601Z,2.15
2022-12-11T06:34:07.773Z,1.90
2022-12-11T06:36:34.840Z,2.60
2022-12-11T06:39:01.878Z,2.20
2022-12-11T06:41:28.942Z,2.55
2022-12-11T06:43:56.140Z,2.28
2022-12-11T06:46:23.349Z,2.45
2022-12-11T06:48:51.194Z,2.53
2022-12-11T06:51:23.326Z,2.55
2022-12-11T06:53:55.729Z,2.58
2022-12-11T06:56:24.647Z,2.50
2022-12-11T06:58:52.178Z,2.47
2022-12-11T07:01:26.225Z,2.65
2022-12-11T07:03:57.529Z,2.67
2022-12-11T07:06:26.395Z,2.45
2022-12-11T07:08:53.368Z,2.40
2022-12-11T07:11:21.455Z,2.60
2022-12-11T07:13:49.096Z,2.80
2022-12-11T07:16:17.785Z,2.80
2022-12-11T07:18:49.112Z,2.58
2022-12-11T07:21:16.371Z,3.33
2022-12-11T07:23:43.696Z,3.33
2022-12-11T07:26:16.744Z,3.22
2022-12-11T07:28:44.149Z,3.05
2022-12-11T07:31:17.190Z,3.22
2022-12-11T07:33:44.879Z,3.90
2022-12-11T07:36:13.377Z,3.58
2022-12-11T07:38:41.028Z,3.90
2022-12-11T07:41:11.292Z,3.70
2022-12-11T07:43:38.652Z,3.22
2022-12-11T07:46:11.408Z,4.53
2022-12-11T07:48:40.811Z,3.97
2022-12-11T07:51:19.989Z,3.60
2022-12-11T07:53:50.425Z,3.05
2022-12-11T07:56:19.390Z,2.95
2022-12-11T07:58:47.362Z,2.75
2022-12-11T08:01:17.489Z,3.42
2022-12-11T08:03:45.174Z,3.03
2022-12-11T08:06:12.865Z,2.40
2022-12-11T08:08:41.658Z,2.63
2022-12-11T08:11:12.049Z,3.08
2022-12-11T08:13:40.322Z,3.00
2022-12-11T08:16:09.559Z,3.80
2022-12-11T08:18:38.291Z,3.80
2022-12-11T08:21:07.107Z,3.05
2022-12-11T08:23:34.704Z,3.13
2022-12-11T08:26:11.204Z,3.20
2022-12-11T08:28:38.336Z,3.60
2022-12-11T08:31:08.170Z,4.03
2022-12-11T08:33:37.621Z,3.42
2022-12-11T08:36:09.846Z,3.60
2022-12-11T08:38:37.693Z,3.67
2022-12-11T08:41:12.896Z,3.70
2022-12-11T08:43:40.759Z,5.30
2022-12-11T08:46:08.721Z,9.65
2022-12-11T08:48:37.867Z,4.18
2022-12-11T08:51:08.628Z,3.45
2022-12-11T08:53:35.678Z,3.95
2022-12-11T08:56:08.246Z,3.63
2022-12-11T08:58:35.948Z,2.83
2022-12-11T09:01:12.375Z,3.83
2022-12-11T09:03:40.666Z,3.75
2022-12-11T09:06:09.977Z,3.00
2022-12-11T09:08:37.285Z,2.30
2022-12-11T09:11:07.339Z,2.85
2022-12-11T09:13:34.630Z,2.72
2022-12-11T09:16:05.178Z,3.22
2022-12-11T09:18:32.410Z,3.97
2022-12-11T09:21:04.129Z,3.03
2022-12-11T09:23:31.627Z,3.10
2022-12-11T09:25:58.796Z,3.50
2022-12-11T09:28:26.496Z,2.95
2022-12-11T09:30:53.541Z,3.20
2022-12-11T09:33:20.791Z,3.30
2022-12-11T09:35:58.334Z,3.25
2022-12-11T09:38:25.506Z,2.88
2022-12-11T09:40:52.731Z,3.60
2022-12-11T09:43:50.029Z,3.40
2022-12-11T09:46:18.240Z,3.20
2022-12-11T09:48:47.785Z,4.30
2022-12-11T09:51:26.934Z,3.80
2022-12-11T09:53:59.636Z,3.00
2022-12-11T09:56:30.519Z,3.08
2022-12-11T09:59:03.373Z,3.58
2022-12-11T10:01:42.517Z,3.00
2022-12-11T10:04:34.664Z,4.03
2022-12-11T10:07:24.802Z,2.90
2022-12-11T10:10:03.270Z,2.30
2022-12-11T10:13:26.004Z,3.75
2022-12-11T10:16:04.207Z,2.88
2022-12-11T10:18:32.746Z,2.53
2022-12-11T10:21:02.849Z,2.88
2022-12-11T10:23:36.463Z,3.05
2022-12-11T10:26:12.936Z,2.30
2022-12-11T10:28:40.088Z,1.63
2022-12-11T10:31:18.352Z,2.95
2022-12-11T10:33:57.140Z,2.75
2022-12-11T10:36:31.581Z,2.47
2022-12-11T10:38:59.437Z,2.35
2022-12-11T10:41:40.923Z,2.13
2022-12-11T10:44:21.628Z,2.13
2022-12-11T10:47:08.567Z,2.47
2022-12-11T10:49:37.376Z,2.05
2022-12-11T10:52:24.991Z,2.30
2022-12-11T10:55:10.467Z,2.00
2022-12-11T10:57:39.439Z,2.03
2022-12-11T11:00:08.954Z,1.88
2022-12-11T11:02:38.880Z,1.90
2022-12-11T11:05:36.439Z,2.25
2022-12-11T11:08:15.432Z,1.90
2022-12-11T11:11:20.167Z,2.30
2022-12-11T11:13:47.241Z,2.40
2022-12-11T11:16:17.886Z,2.83
2022-12-11T11:18:53.339Z,2.17
2022-12-11T11:21:24.346Z,2.10
2022-12-11T11:23:53.911Z,2.33
2022-12-11T11:26:38.256Z,2.28
2022-12-11T11:29:27.952Z,2.08
2022-12-11T11:31:55.281Z,1.70
2022-12-11T11:34:22.445Z,2.15
2022-12-11T11:36:58.040Z,1.30
2022-12-11T11:39:32.828Z,1.63
2022-12-11T11:42:55.674Z,1.83
2022-12-11T11:45:29.817Z,1.70
2022-12-11T11:48:24.906Z,2.00
2022-12-11T11:50:54.051Z,2.10
2022-12-11T11:53:37.404Z,2.00
2022-12-11T11:56:22.808Z,1.85
2022-12-11T11:59:06.849Z,1.70
2022-12-11T12:01:33.986Z,1.60
2022-12-11T12:04:02.789Z,1.80
2022-12-11T12:07:07.479Z,1.27
2022-12-11T12:09:51.935Z,1.70
2022-12-11T12:12:28.614Z,1.65
2022-12-11T12:15:22.840Z,1.48
2022-12-11T12:17:56.717Z,1.38
2022-12-11T12:20:53.952Z,1.10
2022-12-11T12:23:41.367Z,1.30
2022-12-11T12:26:47.280Z,1.45
2022-12-11T12:29:23.609Z,1.30
2022-12-11T12:32:02.452Z,1.27
2022-12-11T12:34:45.073Z,1.50
2022-12-11T12:37:24.278Z,1.35
2022-12-11T12:40:13.573Z,1.33
2022-12-11T12:42:52.801Z,1.27
2022-12-11T12:45:35.171Z,1.52
2022-12-11T12:48:03.436Z,1.63
2022-12-11T12:50:38.834Z,1.20
2022-12-11T12:53:07.813Z,1.48
2022-12-11T12:55:36.002Z,1.50
2022-12-11T12:58:05.873Z,1.40
2022-12-11T13:00:44.194Z,1.50
2022-12-11T13:03:20.411Z,1.52
2022-12-11T13:06:01.745Z,1.38
2022-12-11T13:08:35.087Z,1.27
2022-12-11T13:11:11.602Z,1.63
2022-12-11T13:13:42.647Z,1.58
2022-12-11T13:16:15.792Z,1.55
2022-12-11T13:18:48.368Z,1.60
2022-12-11T13:21:36.413Z,1.50
2022-12-11T13:24:14.533Z,1.25
2022-12-11T13:26:43.292Z,1.35
2022-12-11T13:29:34.212Z,1.20
2022-12-11T13:32:23.628Z,1.10
2022-12-11T13:34:57.885Z,1.60
2022-12-11T13:37:33.974Z,1.50
2022-12-11T13:40:09.291Z,1.00
2022-12-11T13:42:49.448Z,1.50
2022-12-11T13:45:24.184Z,1.83
2022-12-11T13:47:51.539Z,1.10
2022-12-11T13:50:24.503Z,1.20
2022-12-11T13:52:56.492Z,1.55
2022-12-11T13:55:30.354Z,1.10
2022-12-11T13:57:58.389Z,1.05
2022-12-11T14:00:28.086Z,1.00
2022-12-11T14:02:58.953Z,1.60
2022-12-11T14:05:26.261Z,1.48
2022-12-11T14:07:59.039Z,1.10
2022-12-11T14:10:29.855Z,1.25
2022-12-11T14:13:02.627Z,0.98
2022-12-11T14:15:31.867Z,1.35
2022-12-11T14:18:00.996Z,1.60
2022-12-11T14:20:33.932Z,1.30
2022-12-11T14:23:08.057Z,1.50
2022-12-11T14:25:35.076Z,1.30
2022-12-11T14:28:02.282Z,1.25
2022-12-11T14:30:33.340Z,1.20
2022-12-11T14:33:05.449Z,1.00
2022-12-11T14:35:40.497Z,1.15
2022-12-11T14:38:33.776Z,1.20
2022-12-11T14:41:07.802Z,0.90
2022-12-11T14:43:42.731Z,1.17
2022-12-11T14:46:18.460Z,1.10
2022-12-11T14:49:15.807Z,1.35
2022-12-11T14:51:43.570Z,1.40
2022-12-11T14:54:24.119Z,1.30
2022-12-11T14:56:51.402Z,1.60
2022-12-11T14:59:28.348Z,1.85
2022-12-11T15:01:59.412Z,1.42
2022-12-11T15:04:32.914Z,1.35
2022-12-11T15:07:00.752Z,2.47
2022-12-11T15:09:33.919Z,1.33
2022-12-11T15:12:10.881Z,1.48
2022-12-11T15:14:52.298Z,1.52
2022-12-11T15:17:20.923Z,1.30
2022-12-11T15:20:02.012Z,1.20
2022-12-11T15:22:32.177Z,1.20
2022-12-11T15:25:00.464Z,1.52
2022-12-11T15:27:39.083Z,1.35
2022-12-11T15:30:18.314Z,1.67
2022-12-11T15:32:45.958Z,1.35
2022-12-11T15:35:24.708Z,1.42
2022-12-11T15:37:56.437Z,1.27
2022-12-11T15:40:24.474Z,1.17
2022-12-11T15:42:52.458Z,1.50
2022-12-11T15:45:22.104Z,1.75
2022-12-11T15:47:50.045Z,1.75
2022-12-11T15:50:22.101Z,1.67
2022-12-11T15:52:50.708Z,1.10
2022-12-11T15:55:18.611Z,1.40
2022-12-11T15:57:49.431Z,1.40
2022-12-11T16:00:21.404Z,1.42
2022-12-11T16:02:48.698Z,1.42
2022-12-11T16:05:16.057Z,1.65
2022-12-11T16:07:43.268Z,1.58
2022-12-11T16:10:17.872Z,2.55
2022-12-11T16:12:45.681Z,4.93
2022-12-11T16:15:20.155Z,7.57
2022-12-11T16:17:50.460Z,7.15
2022-12-11T16:20:17.713Z,7.25
2022-12-11T16:22:44.881Z,5.65
2022-12-11T16:25:12.305Z,3.58
2022-12-11T16:27:39.501Z,3.50
2022-12-11T16:30:10.907Z,3.35
2022-12-11T16:32:38.149Z,4.47
2022-12-11T16:35:05.673Z,4.22
2022-12-11T16:37:32.671Z,3.47
2022-12-11T16:40:00.380Z,3.00
2022-12-11T16:42:27.536Z,2.72
2022-12-11T16:44:54.671Z,3.83
2022-12-11T16:47:21.763Z,3.67
2022-12-11T16:49:48.898Z,3.97
2022-12-11T16:52:21.796Z,4.28
